Time;durP1;ratioP1;P1;durP2;ratioP2;P2;SDS_P1;SDS_P2;PMS_P1;PMS_P2;Temp;Humidity;BMP_temperature;BMP_pressure;BME280_temperature;BME280_humidity;BME280_pressure;Samples;Min_cycle;Max_cycle;Signal;HPM_P1;HPM_P2
2021/12/23 00:01:20;;;;;;;21.67;11.57;;;;;;;-0.51;65.89;102198.97;5051566;28;20203;-77
2021/12/23 00:03:46;;;;;;;23.93;11.77;;;;;;;-0.51;66.36;102198.06;5051776;28;20178;-78
2021/12/23 00:06:11;;;;;;;24.47;12.90;;;;;;;-0.51;66.24;102200.56;5051699;28;20240;-78
2021/12/23 00:08:37;;;;;;;25.73;12.50;;;;;;;-0.52;66.16;102198.75;5051697;28;20698;-78
2021/12/23 00:11:03;;;;;;;24.93;13.77;;;;;;;-0.70;66.03;102186.66;5051317;28;20691;-78
2021/12/23 00:13:28;;;;;;;24.53;13.30;;;;;;;-0.60;66.02;102205.06;5051756;28;20188;-79
2021/12/23 00:18:46;;;;;;;18.87;11.70;;;;;;;-0.61;66.19;102205.75;5051296;28;20172;-79
2021/12/23 00:23:53;;;;;;;22.77;11.87;;;;;;;-1.02;65.67;102134.66;5051740;28;20650;-79
2021/12/23 00:26:19;;;;;;;22.53;11.70;;;;;;;-0.64;65.60;102206.84;5049983;28;20194;-79
2021/12/23 00:28:45;;;;;;;18.50;10.47;;;;;;;-0.76;65.59;102175.63;5051462;28;20179;-78
2021/12/23 00:31:10;;;;;;;23.10;10.63;;;;;;;-0.79;65.07;102181.06;5051648;28;20202;-80
2021/12/23 00:33:39;;;;;;;20.90;11.00;;;;;;;-0.66;65.50;102194.00;5051253;28;20233;-79
2021/12/23 00:36:05;;;;;;;20.43;11.50;;;;;;;-0.68;65.06;102202.94;5051306;28;20206;-79
2021/12/23 00:38:36;;;;;;;21.20;10.87;;;;;;;-0.67;65.51;102202.25;5051342;28;20179;-79
2021/12/23 00:41:04;;;;;;;23.87;10.93;;;;;;;-0.68;65.45;102200.41;5051316;28;20230;-80
2021/12/23 00:43:31;;;;;;;18.67;10.27;;;;;;;-1.13;65.77;102119.44;5051130;28;20262;-79
2021/12/23 00:45:57;;;;;;;24.27;11.27;;;;;;;-0.72;65.58;102198.06;5051138;28;20171;-78
2021/12/23 00:48:22;;;;;;;20.10;10.87;;;;;;;-1.15;65.58;102110.75;5051012;28;20324;-77
2021/12/23 00:50:48;;;;;;;24.10;13.13;;;;;;;-0.76;65.71;102189.13;5051370;28;20203;-79
2021/12/23 00:53:18;;;;;;;24.97;13.03;;;;;;;-0.78;65.76;102203.06;5049737;28;20693;-78
2021/12/23 00:55:51;;;;;;;24.60;13.23;;;;;;;-1.06;66.40;102151.50;5033786;28;20172;-77
2021/12/23 00:58:17;;;;;;;24.13;12.47;;;;;;;-0.83;66.20;102183.78;5051323;28;20250;-77
2021/12/23 01:00:43;;;;;;;22.67;11.60;;;;;;;-0.79;65.38;102195.25;5049802;28;20279;-76
2021/12/23 01:03:09;;;;;;;24.40;11.93;;;;;;;-0.86;65.88;102180.78;5050953;28;20574;-77
2021/12/23 01:05:35;;;;;;;23.20;11.47;;;;;;;-0.90;65.46;102169.97;5051040;28;20210;-76
2021/12/23 01:08:01;;;;;;;30.27;12.40;;;;;;;-0.94;66.12;102163.53;5051491;28;20269;-77
2021/12/23 01:10:27;;;;;;;31.37;14.93;;;;;;;-0.83;66.05;102187.91;5050963;28;20227;-76
2021/12/23 01:13:02;;;;;;;39.40;18.47;;;;;;;-0.85;66.75;102182.63;5051071;28;20175;-77
2021/12/23 01:18:07;;;;;;;39.00;19.47;;;;;;;-1.06;66.38;102138.94;5050986;28;20230;-77
2021/12/23 01:20:35;;;;;;;47.33;21.67;;;;;;;-0.85;65.96;102181.69;5051049;28;20178;-77
2021/12/23 01:23:04;;;;;;;45.97;19.30;;;;;;;-0.86;66.09;102179.88;5050995;28;20266;-78
2021/12/23 01:25:31;;;;;;;33.97;18.57;;;;;;;-0.89;65.78;102174.34;5049529;28;20191;-78
2021/12/23 01:27:57;;;;;;;27.43;15.57;;;;;;;-0.87;65.43;102167.94;5050957;28;20190;-76
2021/12/23 01:30:23;;;;;;;26.70;13.97;;;;;;;-0.88;66.04;102166.13;5050834;28;20183;-76
2021/12/23 01:32:51;;;;;;;26.07;14.93;;;;;;;-0.87;66.35;102167.94;5053130;28;20332;-78
2021/12/23 01:35:17;;;;;;;28.47;13.90;;;;;;;-0.96;66.14;102150.72;5054718;28;20179;-76
2021/12/23 01:37:44;;;;;;;25.17;13.33;;;;;;;-0.86;66.29;102169.81;5054405;28;20226;-77
2021/12/23 01:40:12;;;;;;;24.53;13.33;;;;;;;-1.05;66.29;102135.75;5054317;28;20361;-76
2021/12/23 01:42:37;;;;;;;25.83;12.33;;;;;;;-0.82;66.06;102169.59;5054732;28;20175;-76
2021/12/23 01:45:09;;;;;;;25.30;13.37;;;;;;;-0.82;66.31;102168.00;5054300;28;20183;-76
2021/12/23 01:47:35;;;;;;;33.33;14.53;;;;;;;-0.96;66.73;102138.13;5054744;28;20172;-77
2021/12/23 01:50:00;;;;;;;30.73;14.80;;;;;;;-0.81;65.56;102182.44;5054339;28;20167;-78
2021/12/23 01:52:26;;;;;;;32.67;14.57;;;;;;;-0.82;65.70;102173.03;5054405;28;20222;-76
2021/12/23 01:54:51;;;;;;;23.73;12.37;;;;;;;-0.85;66.22;102171.63;5052795;28;20167;-76
2021/12/23 01:57:17;;;;;;;23.07;12.40;;;;;;;-0.93;66.14;102167.91;5054188;28;20207;-77
2021/12/23 01:59:43;;;;;;;21.97;12.30;;;;;;;-1.13;66.46;102139.56;5054034;28;20171;-77
2021/12/23 02:02:10;;;;;;;23.40;11.60;;;;;;;-0.91;66.80;102181.63;5054362;28;20190;-76
2021/12/23 02:04:36;;;;;;;27.90;13.27;;;;;;;-1.00;66.50;102162.56;5054255;28;20563;-78
2021/12/23 02:07:02;;;;;;;24.40;12.40;;;;;;;-1.10;66.52;102152.63;5054001;28;20587;-78
2021/12/23 02:09:27;;;;;;;24.53;12.80;;;;;;;-1.00;66.16;102177.66;5053883;28;20215;-77
2021/12/23 02:11:53;;;;;;;34.77;16.17;;;;;;;-1.00;66.30;102173.56;5054316;28;20205;-78
2021/12/23 02:14:19;;;;;;;30.80;15.80;;;;;;;-1.02;66.81;102176.50;5053781;28;20642;-78
2021/12/23 02:16:44;;;;;;;40.27;19.00;;;;;;;-1.04;67.05;102172.81;5052482;28;20245;-78
2021/12/23 02:19:17;;;;;;;37.10;19.73;;;;;;;-1.08;67.23;102162.94;5054489;28;20643;-78
2021/12/23 02:21:44;;;;;;;34.47;18.60;;;;;;;-1.03;67.35;102177.16;5054285;28;20681;-78
2021/12/23 02:24:10;;;;;;;34.90;17.73;;;;;;;-1.02;67.50;102187.47;5054367;28;20182;-78
2021/12/23 02:26:40;;;;;;;35.43;19.20;;;;;;;-1.03;67.21;102179.66;5053844;28;20172;-77
2021/12/23 02:29:06;;;;;;;36.63;19.27;;;;;;;-1.00;67.29;102185.19;5053678;28;20205;-78
2021/12/23 02:31:32;;;;;;;42.10;19.63;;;;;;;-0.99;67.56;102197.13;5053925;28;20258;-78
2021/12/23 02:33:58;;;;;;;52.17;25.60;;;;;;;-0.99;67.51;102184.53;5053289;28;20176;-77
2021/12/23 02:36:26;;;;;;;62.00;26.60;;;;;;;-0.96;66.63;102187.56;5053963;28;20203;-80
2021/12/23 02:38:52;;;;;;;64.97;31.33;;;;;;;-1.11;66.95;102162.47;5055172;28;20562;-78
2021/12/23 02:41:17;;;;;;;56.40;27.77;;;;;;;-0.98;67.41;102182.25;5054285;28;20721;-77
2021/12/23 02:43:43;;;;;;;60.70;24.73;;;;;;;-0.98;67.56;102178.81;5053561;28;20270;-79
2021/12/23 02:46:08;;;;;;;54.33;24.57;;;;;;;-1.28;67.05;102124.53;5053893;28;20179;-79
2021/12/23 02:48:36;;;;;;;50.10;23.83;;;;;;;-1.00;67.38;102177.66;5054787;28;20270;-78
2021/12/23 02:51:07;;;;;;;36.60;19.70;;;;;;;-0.99;67.58;102175.41;5054588;28;20175;-79
2021/12/23 02:53:33;;;;;;;39.57;18.47;;;;;;;-0.97;67.65;102173.09;5053583;28;20686;-78
2021/12/23 02:56:01;;;;;;;33.57;16.53;;;;;;;-0.99;67.49;102170.38;5053147;28;20184;-79
2021/12/23 02:58:27;;;;;;;32.70;16.37;;;;;;;-1.04;67.80;102162.75;5053586;28;20171;-77
2021/12/23 03:00:55;;;;;;;33.43;16.30;;;;;;;-0.99;68.01;102172.88;5053439;28;20210;-78
2021/12/23 03:03:20;;;;;;;33.40;18.50;;;;;;;-1.19;67.97;102134.44;5053111;28;20203;-78
2021/12/23 03:05:48;;;;;;;36.77;18.93;;;;;;;-1.11;67.55;102153.31;5053210;28;20206;-78
2021/12/23 03:08:14;;;;;;;35.97;19.37;;;;;;;-1.00;67.57;102183.63;5053363;28;20178;-78
2021/12/23 03:10:39;;;;;;;37.47;20.30;;;;;;;-0.98;67.77;102179.75;5053480;28;20219;-78
2021/12/23 03:13:05;;;;;;;39.67;18.47;;;;;;;-0.97;68.07;102178.13;5052954;28;20610;-77
2021/12/23 03:15:30;;;;;;;38.00;18.60;;;;;;;-0.91;68.09;102180.72;5052909;28;20167;-77
2021/12/23 03:17:56;;;;;;;36.60;18.47;;;;;;;-0.89;67.47;102177.78;5052741;28;20199;-78
2021/12/23 03:20:21;;;;;;;37.80;18.80;;;;;;;-1.26;67.93;102125.69;5053017;28;20180;-78
2021/12/23 03:22:47;;;;;;;39.63;20.27;;;;;;;-0.90;68.07;102182.56;5052944;28;20647;-78
2021/12/23 03:25:12;;;;;;;41.80;19.30;;;;;;;-0.86;68.42;102183.31;5052726;28;20670;-78
2021/12/23 03:27:38;;;;;;;44.43;21.07;;;;;;;-0.93;68.30;102160.38;5052650;28;20270;-79
2021/12/23 03:30:05;;;;;;;59.70;30.70;;;;;;;-1.09;68.32;102119.25;5052739;28;20203;-79
2021/12/23 03:32:31;;;;;;;61.27;29.73;;;;;;;-0.90;68.31;102143.25;5052394;28;20258;-78
2021/12/23 03:34:56;;;;;;;50.03;26.70;;;;;;;-0.95;68.28;102141.56;5052312;28;20742;-80
2021/12/23 03:37:22;;;;;;;51.20;25.80;;;;;;;-0.79;68.29;102171.00;5052893;28;20268;-78
2021/12/23 03:39:51;;;;;;;59.10;27.40;;;;;;;-0.81;68.68;102164.84;5036050;28;20190;-77
2021/12/23 03:42:17;;;;;;;53.13;26.30;;;;;;;-0.70;68.96;102171.56;5054043;28;20220;-79
2021/12/23 03:44:42;;;;;;;56.77;26.40;;;;;;;-0.90;68.58;102140.72;5052929;28;20209;-79
2021/12/23 03:47:08;;;;;;;50.10;25.57;;;;;;;-0.73;68.95;102155.97;5053350;28;20530;-78
2021/12/23 03:49:33;;;;;;;45.57;23.90;;;;;;;-0.74;68.89;102144.06;5052248;28;20350;-79
2021/12/23 03:51:59;;;;;;;39.07;19.07;;;;;;;-0.58;68.65;102167.56;5052718;28;20272;-79
2021/12/23 03:54:24;;;;;;;37.37;17.57;;;;;;;-0.54;68.71;102165.75;5052109;28;20589;-78
2021/12/23 03:56:50;;;;;;;42.53;21.27;;;;;;;-1.02;68.17;102073.34;5051967;28;20234;-76
2021/12/23 03:59:15;;;;;;;43.60;21.33;;;;;;;-0.55;67.82;102166.44;5052398;28;20175;-77
2021/12/23 04:01:42;;;;;;;37.27;20.70;;;;;;;-0.97;68.38;102101.06;5052357;28;20175;-78
2021/12/23 04:04:08;;;;;;;38.50;18.40;;;;;;;-0.65;68.76;102152.16;5052108;28;20171;-79
2021/12/23 04:06:33;;;;;;;33.67;17.97;;;;;;;-0.52;69.15;102171.97;5051123;28;20298;-78
2021/12/23 04:08:59;;;;;;;38.77;20.10;;;;;;;-0.82;68.70;102119.28;5051714;28;20679;-79
2021/12/23 04:11:25;;;;;;;52.03;23.17;;;;;;;-0.46;68.95;102174.53;5052177;28;20176;-79
2021/12/23 04:13:53;;;;;;;40.47;21.23;;;;;;;-0.61;68.69;102150.34;5052149;28;20190;-78
2021/12/23 04:16:19;;;;;;;41.73;21.10;;;;;;;-0.58;69.29;102154.97;5051877;28;20199;-78
2021/12/23 04:18:46;;;;;;;32.40;19.27;;;;;;;-0.45;69.43;102183.91;5051521;28;20179;-79
2021/12/23 04:21:13;;;;;;;42.77;20.00;;;;;;;-0.46;70.14;102189.63;5051472;28;20266;-79
2021/12/23 04:23:38;;;;;;;36.00;19.53;;;;;;;-0.51;70.33;102175.38;5051788;28;20216;-77
2021/12/23 04:26:07;;;;;;;42.00;23.47;;;;;;;-0.71;69.91;102140.44;5051529;28;20184;-78
2021/12/23 04:28:35;;;;;;;74.97;35.70;;;;;;;-0.57;69.02;102165.25;5050804;28;20254;-78
2021/12/23 04:31:00;;;;;;;60.17;28.83;;;;;;;-0.56;69.07;102169.66;5051747;28;20183;-78
2021/12/23 04:33:26;;;;;;;37.77;22.03;;;;;;;-0.48;68.62;102196.94;5052027;28;20193;-77
2021/12/23 04:35:51;;;;;;;38.77;21.10;;;;;;;-0.61;68.18;102172.09;5051593;28;20179;-77
2021/12/23 04:38:17;;;;;;;36.93;20.47;;;;;;;-0.68;68.10;102171.81;5051859;28;20666;-78
2021/12/23 04:40:42;;;;;;;38.20;20.50;;;;;;;-0.54;68.71;102198.47;5051744;28;20273;-78
2021/12/23 04:43:09;;;;;;;40.93;21.13;;;;;;;-0.77;68.45;102157.09;5051431;28;20700;-79
2021/12/23 04:45:34;;;;;;;67.33;30.87;;;;;;;-0.57;68.29;102185.41;5051280;28;20199;-76
2021/12/23 04:48:00;;;;;;;49.20;22.23;;;;;;;-0.54;68.45;102190.94;5051302;28;20207;-78
2021/12/23 04:50:26;;;;;;;35.43;20.07;;;;;;;-0.83;68.58;102142.59;5051373;28;20975;-77
2021/12/23 04:52:52;;;;;;;41.63;20.27;;;;;;;-0.54;68.83;102190.94;5051060;28;20709;-77
2021/12/23 04:55:18;;;;;;;37.47;21.83;;;;;;;-0.53;68.66;102192.78;5049756;28;20179;-78
2021/12/23 04:57:44;;;;;;;35.83;20.77;;;;;;;-0.52;68.84;102187.06;5051130;28;20237;-78
2021/12/23 05:00:15;;;;;;;35.27;20.00;;;;;;;-0.57;68.22;102187.00;5051172;28;20183;-77
2021/12/23 05:02:41;;;;;;;43.03;19.93;;;;;;;-0.51;68.13;102191.41;5050068;28;20167;-77
2021/12/23 05:05:07;;;;;;;43.57;23.13;;;;;;;-0.60;68.33;102181.47;5051156;28;20658;-78
2021/12/23 05:07:33;;;;;;;49.20;26.10;;;;;;;-0.51;68.69;102191.41;5052882;28;20175;-77
2021/12/23 05:09:59;;;;;;;49.63;25.53;;;;;;;-0.61;68.71;102187.22;5053537;28;20223;-78
2021/12/23 05:12:24;;;;;;;44.43;25.93;;;;;;;-0.59;69.44;102191.81;5055186;28;20226;-78
2021/12/23 05:14:50;;;;;;;64.77;27.20;;;;;;;-0.63;71.14;102209.59;5054936;28;20555;-78
2021/12/23 05:17:15;;;;;;;67.80;31.17;;;;;;;-0.72;71.94;102183.91;5054664;28;20199;-77
2021/12/23 05:19:42;;;;;;;72.20;31.60;;;;;;;-1.14;71.38;102112.56;5054339;28;20183;-79
2021/12/23 05:22:08;;;;;;;66.93;31.07;;;;;;;-0.84;71.90;102159.31;5054442;28;20171;-78
2021/12/23 05:24:33;;;;;;;64.97;31.97;;;;;;;-0.60;71.96;102196.59;5054797;28;20662;-78
2021/12/23 05:26:59;;;;;;;65.27;31.37;;;;;;;-0.83;71.73;102152.69;5054686;28;20217;-77
2021/12/23 05:29:24;;;;;;;52.53;25.83;;;;;;;-0.58;71.30;102190.22;5054832;28;20698;-78
2021/12/23 05:31:50;;;;;;;57.47;27.23;;;;;;;-0.61;71.42;102198.19;5054555;28;20176;-78
2021/12/23 05:34:15;;;;;;;56.33;29.53;;;;;;;-0.77;71.73;102156.16;5054193;28;20581;-78
2021/12/23 05:36:41;;;;;;;61.93;32.53;;;;;;;-0.74;72.33;102155.06;5054142;28;20237;-77
2021/12/23 05:39:07;;;;;;;68.10;32.60;;;;;;;-0.44;72.17;102199.94;5054215;28;20179;-78
2021/12/23 05:41:33;;;;;;;68.97;33.70;;;;;;;-0.42;71.27;102198.59;5053932;28;20633;-77
2021/12/23 05:43:59;;;;;;;66.50;32.40;;;;;;;-0.40;71.38;102197.25;5054165;28;20183;-78
2021/12/23 05:46:25;;;;;;;56.47;29.13;;;;;;;-0.39;71.33;102189.91;5054286;28;20289;-78
2021/12/23 05:48:51;;;;;;;49.93;26.17;;;;;;;-0.52;71.23;102173.56;5054282;28;20175;-77
2021/12/23 05:51:17;;;;;;;50.13;24.33;;;;;;;-0.36;71.73;102187.88;5054223;28;20722;-78
2021/12/23 05:53:42;;;;;;;52.13;25.77;;;;;;;-0.42;71.53;102183.47;5053913;28;20569;-79
2021/12/23 05:56:09;;;;;;;51.77;26.30;;;;;;;-0.33;71.10;102192.50;5053729;28;20183;-79
2021/12/23 05:58:34;;;;;;;52.93;25.57;;;;;;;-0.57;70.48;102157.72;5053904;28;20258;-79
2021/12/23 06:01:00;;;;;;;43.60;20.57;;;;;;;-0.31;68.75;102194.59;5053659;28;20163;-78
2021/12/23 06:03:25;;;;;;;36.33;19.43;;;;;;;-0.30;68.00;102196.41;5053874;28;20236;-79
2021/12/23 06:05:52;;;;;;;34.47;19.73;;;;;;;-0.97;66.52;102080.94;5053667;28;20175;-77
2021/12/23 06:08:18;;;;;;;35.47;19.03;;;;;;;-0.23;66.20;102203.31;5054052;28;20263;-79
2021/12/23 06:10:43;;;;;;;27.80;16.63;;;;;;;-0.44;65.58;102172.22;5053359;28;20322;-79
2021/12/23 06:13:09;;;;;;;45.73;21.97;;;;;;;-0.18;65.12;102194.00;5053495;28;20179;-79
2021/12/23 06:15:34;;;;;;;28.73;16.50;;;;;;;-0.03;64.61;102216.56;5053806;28;20232;-78
2021/12/23 06:18:00;;;;;;;27.37;15.70;;;;;;;-0.05;64.83;102211.25;5052843;28;20207;-79
2021/12/23 06:20:25;;;;;;;32.83;17.27;;;;;;;-0.14;65.04;102212.34;5052671;28;20164;-79
2021/12/23 06:22:51;;;;;;;54.33;26.27;;;;;;;-0.04;64.21;102213.09;5053306;28;20214;-79
2021/12/23 06:25:17;;;;;;;37.83;20.17;;;;;;;-0.29;63.85;102160.44;5035508;28;20179;-78
2021/12/23 06:27:43;;;;;;;33.50;16.47;;;;;;;-0.24;63.40;102157.06;5053556;28;20182;-78
2021/12/23 06:30:18;;;;;;;28.70;15.93;;;;;;;0.13;63.41;102217.34;5053562;28;20175;-79
2021/12/23 06:32:49;;;;;;;31.83;16.57;;;;;;;0.06;63.54;102212.94;5053589;28;20167;-79
2021/12/23 06:35:14;;;;;;;28.03;15.60;;;;;;;-0.06;63.21;102199.34;5052048;28;20214;-79
2021/12/23 06:37:41;;;;;;;31.13;17.87;;;;;;;0.04;63.62;102219.34;5053134;28;20226;-78
2021/12/23 06:40:07;;;;;;;32.00;15.73;;;;;;;0.06;62.97;102232.16;5052717;28;20666;-80
2021/12/23 06:42:33;;;;;;;31.53;16.27;;;;;;;-0.08;63.43;102217.41;5053360;28;20240;-78
2021/12/23 06:44:58;;;;;;;35.47;18.37;;;;;;;-0.06;63.07;102227.06;5053020;28;20167;-78
2021/12/23 06:47:24;;;;;;;46.00;19.43;;;;;;;-0.24;62.71;102204.03;5052858;28;20536;-78
2021/12/23 06:49:49;;;;;;;37.57;19.60;;;;;;;-0.10;62.98;102229.75;5051716;28;20171;-79
2021/12/23 06:52:15;;;;;;;54.30;23.10;;;;;;;-0.04;63.26;102227.28;5052940;28;20183;-79
2021/12/23 06:54:46;;;;;;;43.40;22.07;;;;;;;0.01;63.35;102223.00;5053196;28;20669;-79
2021/12/23 06:57:12;;;;;;;43.37;22.17;;;;;;;0.03;63.55;102229.19;5052922;28;20733;-77
2021/12/23 06:59:38;;;;;;;45.83;22.17;;;;;;;0.08;64.30;102225.78;5051555;28;20213;-78
2021/12/23 07:02:04;;;;;;;40.10;20.97;;;;;;;0.13;63.96;102228.34;5052734;28;20284;-80
2021/12/23 07:04:32;;;;;;;42.07;18.93;;;;;;;0.07;63.40;102206.31;5053155;28;20187;-77
2021/12/23 07:07:24;;;;;;;42.83;19.53;;;;;;;0.20;63.09;102230.22;5052836;28;20316;-78
2021/12/23 07:09:50;;;;;;;39.03;18.63;;;;;;;0.12;62.98;102208.84;5052582;28;20260;-79
2021/12/23 07:12:15;;;;;;;32.83;17.80;;;;;;;0.14;63.53;102214.13;5053023;28;20171;-79
2021/12/23 07:14:42;;;;;;;39.80;19.53;;;;;;;0.25;62.76;102228.41;5053032;28;20175;-78
2021/12/23 07:17:07;;;;;;;38.67;19.43;;;;;;;0.10;63.31;102197.63;5052312;28;20713;-78
2021/12/23 07:19:34;;;;;;;38.93;19.83;;;;;;;0.37;62.84;102222.75;5052322;28;20160;-78
2021/12/23 07:22:00;;;;;;;48.93;22.30;;;;;;;0.32;62.79;102211.97;5050953;28;20646;-77
2021/12/23 07:24:25;;;;;;;55.77;25.50;;;;;;;0.18;62.81;102187.13;5052072;28;20315;-77
2021/12/23 07:26:51;;;;;;;48.07;24.10;;;;;;;0.45;63.44;102224.88;5051942;28;20198;-77
2021/12/23 07:29:16;;;;;;;44.80;25.03;;;;;;;0.49;62.88;102221.22;5051789;28;20377;-77
2021/12/23 07:31:42;;;;;;;48.97;25.30;;;;;;;0.35;62.50;102189.75;5051782;28;20308;-77
2021/12/23 07:34:08;;;;;;;58.43;30.37;;;;;;;0.66;62.90;102224.78;5052119;28;20167;-79
2021/12/23 07:36:35;;;;;;;73.03;32.07;;;;;;;0.61;62.37;102196.28;5051827;28;20716;-77
2021/12/23 07:39:01;;;;;;;61.30;31.23;;;;;;;0.89;62.43;102224.16;5051875;28;20214;-77
2021/12/23 07:41:27;;;;;;;59.77;31.37;;;;;;;1.05;61.85;102218.94;5051864;28;20256;-77
2021/12/23 07:44:03;;;;;;;70.23;31.83;;;;;;;1.13;61.69;102216.91;5051992;28;20172;-77
2021/12/23 07:46:31;;;;;;;53.50;27.73;;;;;;;1.07;60.94;102175.56;5052247;28;20250;-78
2021/12/23 07:48:57;;;;;;;53.93;27.47;;;;;;;1.42;60.78;102205.25;5052126;28;20203;-78
2021/12/23 07:51:24;;;;;;;59.90;30.90;;;;;;;1.55;60.21;102208.94;5050417;28;20241;-77
2021/12/23 07:53:50;;;;;;;93.70;38.43;;;;;;;1.40;59.17;102143.47;5051711;28;20171;-78
2021/12/23 07:56:15;;;;;;;76.77;35.50;;;;;;;1.96;58.96;102220.88;5051349;28;20253;-76
2021/12/23 07:58:41;;;;;;;77.30;35.03;;;;;;;2.08;58.48;102223.63;5051693;28;20583;-77
2021/12/23 08:01:07;;;;;;;74.80;31.30;;;;;;;2.07;61.00;102193.06;5051392;28;20159;-82
2021/12/23 08:03:32;;;;;;;39.97;19.63;;;;;;;2.53;68.66;102167.88;5052306;28;20274;-80
2021/12/23 08:05:58;;;;;;;31.37;18.00;;;;;;;3.20;62.89;102216.34;5051892;28;20202;-81
2021/12/23 08:08:23;;;;;;;28.13;15.20;;;;;;;3.36;57.74;102212.78;5051731;28;20175;-76
2021/12/23 08:10:50;;;;;;;21.50;13.03;;;;;;;3.24;54.49;102208.50;5051051;28;20215;-75
2021/12/23 08:13:16;;;;;;;21.97;13.33;;;;;;;3.01;54.84;102173.16;5051298;28;20639;-75
2021/12/23 08:15:42;;;;;;;26.40;14.13;;;;;;;2.74;54.84;102142.25;5051335;28;20203;-77
2021/12/23 08:18:08;;;;;;;26.90;15.37;;;;;;;2.95;55.46;102191.63;5051534;28;20264;-75
2021/12/23 08:20:34;;;;;;;28.03;15.00;;;;;;;2.92;55.97;102202.22;5051682;28;20730;-77
2021/12/23 08:23:00;;;;;;;26.90;15.97;;;;;;;3.02;55.44;102217.13;5051643;28;20312;-77
2021/12/23 08:25:25;;;;;;;24.97;14.30;;;;;;;2.78;55.68;102181.59;5051451;28;20221;-76
2021/12/23 08:27:51;;;;;;;34.23;15.93;;;;;;;3.08;56.07;102212.03;5050993;28;20679;-76
2021/12/23 08:30:18;;;;;;;29.00;16.83;;;;;;;2.96;55.84;102190.91;5051029;28;20180;-76
2021/12/23 08:32:45;;;;;;;25.03;14.87;;;;;;;3.19;54.76;102205.28;5049768;28;20175;-77
2021/12/23 08:35:11;;;;;;;28.03;15.73;;;;;;;3.23;54.39;102202.50;5051002;28;20639;-77
2021/12/23 08:37:39;;;;;;;81.27;33.97;;;;;;;3.26;55.49;102204.56;5050979;28;20203;-75
2021/12/23 08:40:07;;;;;;;32.43;18.13;;;;;;;3.34;55.63;102205.69;5050606;28;20199;-76
2021/12/23 08:42:32;;;;;;;31.83;16.57;;;;;;;3.30;54.90;102173.88;5050303;28;20198;-76
2021/12/23 08:44:58;;;;;;;40.50;22.83;;;;;;;3.56;55.03;102197.91;5049407;28;20548;-74
2021/12/23 08:47:24;;;;;;;38.10;20.37;;;;;;;3.63;54.76;102195.53;5051228;28;20571;-76
2021/12/23 08:49:49;;;;;;;26.40;15.53;;;;;;;3.74;54.65;102206.28;5051026;28;20690;-78
2021/12/23 08:52:14;;;;;;;29.67;16.67;;;;;;;3.81;53.81;102199.78;5051206;28;20670;-77
2021/12/23 08:54:42;;;;;;;31.13;17.27;;;;;;;3.96;54.63;102203.56;5050925;28;20673;-76
2021/12/23 08:57:07;;;;;;;27.57;16.47;;;;;;;3.86;53.73;102159.84;5050892;28;20207;-76
2021/12/23 08:59:33;;;;;;;30.53;14.60;;;;;;;3.96;52.86;102167.13;5049142;28;20607;-77
2021/12/23 09:01:59;;;;;;;28.47;15.77;;;;;;;4.04;53.23;102191.97;5050855;28;20195;-76
2021/12/23 09:04:25;;;;;;;28.07;16.73;;;;;;;4.12;54.03;102184.72;5032843;28;20598;-76
2021/12/23 09:06:51;;;;;;;28.07;16.13;;;;;;;4.33;53.60;102184.28;5050886;28;20179;-77
2021/12/23 09:09:17;;;;;;;34.63;17.55;;;;;;;4.46;53.14;102168.22;5050350;28;20318;-79
2021/12/23 09:11:43;;;;;;;27.93;16.27;;;;;;;4.62;52.81;102173.09;5050418;28;20172;-78
2021/12/23 09:14:10;;;;;;;29.07;15.90;;;;;;;4.74;52.29;102178.03;5050541;28;20178;-77
2021/12/23 09:16:35;;;;;;;26.42;15.32;;;;;;;4.79;52.01;102177.94;5050692;28;20203;-78
2021/12/23 09:19:02;;;;;;;30.67;16.80;;;;;;;4.67;51.51;102127.09;5050660;28;20186;-78
2021/12/23 09:21:28;;;;;;;25.47;15.60;;;;;;;5.04;51.88;102166.06;5050516;28;20182;-77
2021/12/23 09:23:53;;;;;;;30.20;16.87;;;;;;;4.89;50.91;102126.81;5050787;28;20176;-74
2021/12/23 09:26:19;;;;;;;29.13;15.93;;;;;;;5.26;51.28;102159.75;5050579;28;20215;-75
2021/12/23 09:28:58;;;;;;;27.07;15.83;;;;;;;5.16;50.91;102144.88;5050569;28;20190;-76
2021/12/23 09:34:08;;;;;;;28.13;14.97;;;;;;;5.20;51.02;102154.75;5050941;28;20174;-76
2021/12/23 09:36:34;;;;;;;24.00;14.07;;;;;;;5.24;51.10;102146.84;5050641;28;20630;-75
2021/12/23 09:39:01;;;;;;;25.88;14.30;;;;;;;5.21;50.81;102148.97;5050530;28;20701;-78
2021/12/23 09:41:29;;;;;;;29.23;15.33;;;;;;;5.31;50.64;102149.50;5050415;28;20200;-76
2021/12/23 09:43:57;;;;;;;30.40;18.33;;;;;;;5.13;50.29;102105.44;5050354;28;20179;-77
2021/12/23 09:46:24;;;;;;;66.00;26.10;;;;;;;5.31;51.29;102126.63;5050419;28;20178;-76
2021/12/23 09:48:50;;;;;;;29.92;16.67;;;;;;;5.32;51.12;102103.00;5049824;28;20175;-77
2021/12/23 09:51:18;;;;;;;30.50;17.13;;;;;;;5.76;51.33;102123.34;5049715;28;20274;-76
2021/12/23 09:53:55;;;;;;;31.00;16.65;;;;;;;5.90;49.53;102119.16;5052074;28;20684;-78
2021/12/23 09:56:20;;;;;;;28.52;16.50;;;;;;;5.98;50.15;102100.72;5053848;28;20769;-78
2021/12/23 09:58:46;;;;;;;32.55;17.85;;;;;;;6.28;49.32;102080.03;5053817;28;20258;-77
2021/12/23 10:01:12;;;;;;;31.42;17.90;;;;;;;6.89;48.62;102109.25;5052601;28;20171;-75
2021/12/23 10:03:38;;;;;;;30.17;17.23;;;;;;;7.21;48.17;102083.50;5053308;28;20179;-76
2021/12/23 10:06:04;;;;;;;27.65;16.65;;;;;;;7.59;47.55;102088.31;5053677;28;20167;-78
2021/12/23 10:08:30;;;;;;;29.33;17.05;;;;;;;7.85;46.68;102059.31;5052150;28;20179;-77
2021/12/23 10:11:05;;;;;;;22.38;14.25;;;;;;;8.09;43.98;102071.59;5051480;28;20227;-75
2021/12/23 10:30:32;;;;;;;25.40;15.50;;;;;;;8.25;43.52;102048.88;5053328;28;20174;-75
2021/12/23 10:38:35;;;;;;;24.65;15.60;;;;;;;8.74;42.72;102001.19;5053074;28;20179;-75
2021/12/23 10:41:09;;;;;;;21.67;14.00;;;;;;;9.19;42.93;102038.06;5052602;28;20199;-77
2021/12/23 10:43:40;;;;;;;26.52;13.98;;;;;;;9.31;40.90;102023.22;5052983;28;20166;-80
2021/12/23 10:46:14;;;;;;;21.80;13.60;;;;;;;8.70;40.99;101946.97;5051567;28;20167;-75
2021/12/23 10:49:29;;;;;;;25.08;14.88;;;;;;;8.90;41.69;102001.34;5052824;28;20167;-77
2021/12/23 10:52:04;;;;;;;35.10;17.23;;;;;;;8.82;42.17;102020.00;5052550;28;20198;-77
2021/12/23 11:00:22;;;;;;;33.38;14.77;;;;;;;8.61;42.35;102009.75;5052816;28;20547;-76
2021/12/23 11:06:16;;;;;;;25.48;16.10;;;;;;;8.84;43.62;101992.06;5051990;28;20254;-77
2021/12/23 11:08:58;;;;;;;27.60;15.95;;;;;;;9.15;42.13;101974.47;5052794;28;20164;-75
2021/12/23 11:27:31;;;;;;;24.08;15.38;;;;;;;10.11;40.50;101960.75;5050234;28;20257;-78
2021/12/23 11:37:05;;;;;;;28.20;16.70;;;;;;;9.93;38.34;101936.53;5029099;28;20214;-73
2021/12/23 11:39:45;;;;;;;27.60;16.45;;;;;;;9.73;39.37;101929.16;5051732;28;20195;-74
2021/12/23 11:42:28;;;;;;;31.20;19.60;;;;;;;10.01;39.27;101953.69;5052183;28;20160;-76
2021/12/23 11:44:54;;;;;;;30.70;17.13;;;;;;;9.90;39.63;101957.56;5052033;28;20627;-78
2021/12/23 11:47:20;;;;;;;31.73;16.88;;;;;;;9.97;39.31;101948.03;5052044;28;20195;-77
2021/12/23 11:49:47;;;;;;;29.92;16.83;;;;;;;10.17;39.82;101948.66;5051980;28;20266;-78
2021/12/23 11:52:14;;;;;;;30.33;19.23;;;;;;;9.91;39.23;101938.03;5052024;28;20205;-78
2021/12/23 11:54:45;;;;;;;36.13;20.33;;;;;;;9.74;40.00;101954.00;5051746;28;20190;-77
2021/12/23 11:57:16;;;;;;;32.80;18.65;;;;;;;9.49;40.43;101932.34;5051982;28;20588;-78
2021/12/23 11:59:44;;;;;;;36.40;20.80;;;;;;;9.36;40.99;101940.28;5051669;28;20167;-77
2021/12/23 12:02:21;;;;;;;31.20;19.92;;;;;;;9.37;41.05;101946.28;5051221;28;20187;-77
2021/12/23 12:04:48;;;;;;;31.27;18.65;;;;;;;8.74;40.97;101890.38;5051464;28;20171;-77
2021/12/23 12:07:17;;;;;;;28.10;17.35;;;;;;;8.66;42.57;101942.22;5051692;28;20202;-77
2021/12/23 12:10:07;;;;;;;32.92;18.15;;;;;;;8.36;42.84;101950.59;5051393;28;20215;-80
2021/12/23 12:12:36;;;;;;;31.40;18.63;;;;;;;8.58;43.29;101928.53;5051542;28;20175;-80
2021/12/23 12:15:03;;;;;;;35.33;19.23;;;;;;;8.98;42.76;101941.84;5052432;28;20555;-81
2021/12/23 12:17:33;;;;;;;30.50;17.55;;;;;;;9.45;41.36;101936.22;5050563;28;20249;-81